Latest Weather Observations for Viewbank

IDV60901

Issued at 11:31 pm EDT Saturday 25 January 2020 (issued every 10 minutes, with the page automatically refreshed every 10 minutes)

About weather observations | Map of Melbourne area stations | Latest observations for Melbourne area | Other Formats
Station Details ID: 086068 Name: VIEWBANK Lat: -37.74 Lon: 145.10 Height: 66.1 m
Data from the previous 72 hours. | See also: Recent months at Viewbank
Date/Time
EDT
Temp
°C
App
Temp
°C
Dew
Point
°C
Rel
Hum
%
Delta-T
°C
Wind Press
QNH
hPa
Press
MSL
hPa
Rain since
9am
mm
Dir  Spd
km/h
Gust
km/h
Spd
kts
Gust
kts
25/11:30pm 18.2 17.9 14.3 78 2.2 S 9 17 5 9 1013.8 1013.5 0.0
25/11:00pm 18.5 18.1 14.2 76 2.5 SSW 9 13 5 7 1014.0 1013.7 0.0
25/10:30pm 19.1 18.3 14.1 73 2.9 SSW 11 20 6 11 1013.9 1013.6 0.0
25/10:00pm 19.5 19.1 14.1 71 3.1 SSW 9 17 5 9 1013.7 1013.4 0.0
25/09:30pm 20.2 19.6 13.6 66 3.8 SW 9 17 5 9 1013.3 1013.0 0.0
25/09:00pm 20.9 20.3 13.6 63 4.2 SW 9 17 5 9 1012.8 1012.5 0.0
25/08:30pm 22.0 21.4 13.6 59 4.9 SW 9 17 5 9 1012.5 1012.2 0.0
25/08:00pm 23.8 23.2 13.6 52 6.0 SSW 9 22 5 12 1011.9 1011.7 0.0
25/07:30pm 24.6 23.4 12.9 48 6.8 S 11 24 6 13 1011.4 1011.2 0.0
25/07:00pm 26.5 25.1 11.0 38 8.8 SSW 9 17 5 9 1011.1 1010.9 0.0
25/06:30pm 27.6 26.8 11.6 37 9.2 S 7 13 4 7 1010.9 1010.7 0.0
25/06:00pm 27.8 26.5 11.4 36 9.4 SSE 9 17 5 9 1010.9 1010.7 0.0
25/05:30pm 28.3 27.0 11.4 35 9.7 SSW 9 22 5 12 1011.1 1010.9 0.0
25/05:00pm 27.7 26.3 10.9 35 9.6 SSW 9 15 5 8 1011.4 1011.2 0.0
25/04:30pm 27.8 26.2 11.4 36 9.4 WSW 11 19 6 10 1011.5 1011.3 0.0
25/04:00pm 28.3 26.8 11.8 36 9.6 SW 11 17 6 9 1011.8 1011.6 0.0
25/03:30pm 27.5 25.7 10.7 35 9.5 SSE 11 19 6 10 1012.0 1011.8 0.0
25/03:00pm 27.3 25.7 10.1 34 9.6 NW 9 17 5 9 1012.5 1012.2 0.0
25/02:30pm 27.3 25.4 10.5 35 9.5 W 11 19 6 10 1012.7 1012.4 0.0
25/02:00pm 26.1 24.3 9.5 35 9.2 W 9 17 5 9 1013.0 1012.7 0.0
25/01:30pm 26.0 24.4 10.2 37 8.8 NW 9 15 5 8 1013.4 1013.1 0.0
25/01:00pm 26.0 25.0 11.0 39 8.5 WNW 7 15 4 8 1013.5 1013.2 0.0
25/12:30pm 24.5 23.0 10.4 41 7.8 ENE 9 19 5 10 1013.7 1013.4 0.0
25/12:00pm 24.2 23.0 11.5 45 7.2 NNW 9 19 5 10 1014.1 1013.8 0.0
25/11:30am 23.3 22.2 10.7 45 7.0 NW 7 17 4 9 1014.2 1013.9 0.0
25/11:00am 22.4 21.3 10.5 47 6.5 SW 7 15 4 8 1014.5 1014.2 0.0
25/10:30am 21.9 21.4 12.5 55 5.3 SE 7 11 4 6 1014.7 1014.4 0.0
25/10:00am 20.3 19.6 11.5 57 4.9 NE 6 11 3 6 1014.9 1014.6 0.0
25/09:30am 19.3 19.0 12.6 65 3.8 ENE 6 11 3 6 1015.3 1015.0 0.0
25/09:00am 17.4 17.3 12.1 71 2.9 E 4 7 2 4 1015.4 1015.1 0.0
25/08:30am 15.9 15.8 12.1 78 2.1 E 4 7 2 4 1015.1 1014.8 0.0
25/08:00am 14.3 13.8 12.5 89 1.0 E 7 9 4 5 1014.9 1014.6 0.0
25/07:30am 12.5 11.9 12.3 99 0.1 E 7 7 4 4 1014.6 1014.3 0.0
25/07:00am 11.8 12.3 11.6 99 0.1 CALM 0 6 0 3 1014.4 1014.1 0.0
25/06:30am 11.2 11.6 11.2 100 0.0 CALM 0 0 0 0 1014.1 1013.8 0.0
25/06:00am 11.6 12.1 11.6 100 0.0 CALM 0 0 0 0 1013.9 1013.6 0.0
25/05:30am 11.9 12.5 11.9 100 0.0 CALM 0 6 0 3 1013.8 1013.5 0.0
25/05:00am 12.2 12.4 12.0 99 0.1 E 2 7 1 4 1013.8 1013.5 0.0
25/04:30am 12.5 13.2 12.3 99 0.1 CALM 0 0 0 0 1013.9 1013.6 0.0
25/04:00am 12.9 13.6 12.3 96 0.3 CALM 0 0 0 0 1014.0 1013.7 0.0
25/03:30am 13.2 13.9 12.3 94 0.5 CALM 0 6 0 3 1014.0 1013.7 0.0
25/03:00am 13.3 13.2 12.0 92 0.7 WSW 4 7 2 4 1014.0 1013.7 0.0
25/02:30am 13.8 13.0 11.7 87 1.1 ENE 7 9 4 5 1014.0 1013.7 0.0
25/02:00am 14.0 13.8 11.9 87 1.1 ENE 4 9 2 5 1013.9 1013.6 0.0
25/01:30am 14.6 15.1 11.6 82 1.6 CALM 0 0 0 0 1014.0 1013.7 0.0
25/01:00am 15.0 15.0 11.0 77 2.1 ENE 2 7 1 4 1013.9 1013.6 0.0
25/12:30am 15.9 15.7 10.4 70 2.9 N 2 6 1 3 1013.8 1013.5 0.0
25/12:00am 16.7 15.7 10.3 66 3.4 NE 6 7 3 4 1013.6 1013.3 0.0
 
Date/Time
EDT
Temp
°C
App
Temp
°C
Dew
Point
°C
Rel
Hum
%
Delta-T
°C
Wind Press
QNH
hPa
Press
MSL
hPa
Rain since
9am
mm
Dir  Spd
km/h
Gust
km/h
Spd
kts
Gust
kts
24/11:30pm 17.5 16.8 9.9 61 4.0 NE 4 6 2 3 1013.6 1013.3 0.0
24/11:00pm 17.7 17.6 9.6 59 4.3 CALM 0 0 0 0 1013.8 1013.5 0.0
24/10:30pm 18.2 18.0 9.0 55 4.8 CALM 0 0 0 0 1013.7 1013.4 0.0
24/10:00pm 19.2 18.9 8.8 51 5.4 CALM 0 0 0 0 1013.4 1013.1 0.0
24/09:30pm 19.3 18.2 8.6 50 5.6 SSW 4 9 2 5 1013.0 1012.7 0.0
24/09:00pm 20.0 18.5 8.4 47 6.1 W 6 9 3 5 1012.8 1012.5 0.0
24/08:30pm 21.0 18.9 8.3 44 6.7 W 9 13 5 7 1012.5 1012.2 0.0
24/08:00pm 21.7 20.3 8.9 44 6.8 W 6 9 3 5 1012.3 1012.0 0.0
24/07:30pm 23.3 21.0 9.0 40 7.7 W 11 17 6 9 1011.8 1011.6 0.0
24/07:00pm 23.4 23.1 8.7 39 7.9 CALM 0 7 0 4 1011.5 1011.3 0.0
24/06:30pm 22.1 20.1 8.6 42 7.2 WNW 9 13 5 7 1011.7 1011.5 0.0
24/06:00pm 22.5 19.7 8.6 41 7.4 W 13 19 7 10 1011.5 1011.3 0.0
24/05:30pm 24.0 20.9 8.8 38 8.2 W 15 24 8 13 1011.4 1011.2 0.0
24/05:00pm 23.2 19.5 8.1 38 8.0 WSW 17 24 9 13 1011.2 1011.0 0.0
24/04:30pm 23.7 21.7 8.6 38 8.1 W 9 20 5 11 1011.5 1011.3 0.0
24/04:00pm 23.3 20.4 8.2 38 8.0 WNW 13 20 7 11 1011.8 1011.6 0.0
24/03:30pm 22.2 20.0 8.0 40 7.5 W 9 15 5 8 1012.0 1011.8 0.0
24/03:00pm 21.7 19.8 6.8 38 7.6 WNW 6 11 3 6 1012.1 1011.9 0.0
24/02:30pm 22.0 19.0 7.8 40 7.4 WNW 13 19 7 10 1012.1 1011.9 0.0
24/02:00pm 22.3 19.4 8.1 40 7.5 WNW 13 20 7 11 1012.3 1012.0 0.0
24/01:30pm 21.8 18.3 7.2 39 7.5 WNW 15 26 8 14 1012.4 1012.1 0.0
24/01:00pm 22.0 18.5 7.4 39 7.6 WNW 15 28 8 15 1012.5 1012.2 0.0
24/12:30pm 20.4 16.8 6.7 41 6.9 W 15 30 8 16 1012.6 1012.3 0.0
24/12:00pm 19.4 17.0 7.2 45 6.2 NW 9 20 5 11 1012.6 1012.3 0.0
24/11:30am 19.3 16.9 6.8 44 6.3 NNW 9 19 5 10 1012.5 1012.2 0.0
24/11:00am 18.5 14.6 7.0 47 5.8 NNW 17 24 9 13 1012.6 1012.3 0.0
24/10:30am 18.4 15.6 8.4 52 5.2 NW 13 24 7 13 1012.5 1012.2 0.0
24/10:00am 17.5 14.5 7.5 52 5.1 NW 13 22 7 12 1012.3 1012.0 0.0
24/09:30am 16.6 13.6 7.5 55 4.6 NW 13 22 7 12 1011.8 1011.6 0.0
24/09:00am 15.6 12.8 7.1 57 4.2 NNW 11 17 6 9 1011.6 1011.4 0.4
24/08:30am 15.1 12.1 7.6 61 3.7 NNW 13 20 7 11 1011.2 1011.0 0.4
24/08:00am 13.6 10.4 6.7 63 3.3 NNW 13 20 7 11 1010.8 1010.6 0.4
24/07:30am 10.5 9.1 8.8 89 0.8 N 6 9 3 5 1010.5 1010.3 0.4
24/07:00am 9.3 8.8 9.2 99 0.0 ENE 2 6 1 3 1010.1 1009.9 0.4
24/06:30am 8.6 7.1 8.5 99 0.0 ENE 6 7 3 4 1009.5 1009.3 0.4
24/06:00am 8.7 8.4 8.6 99 0.0 CALM 0 6 0 3 1009.0 1008.8 0.4
24/05:30am 9.2 8.6 9.1 99 0.0 NNE 2 6 1 3 1008.7 1008.5 0.4
24/05:00am 10.0 8.5 8.3 89 0.8 NE 6 7 3 4 1008.6 1008.4 0.4
24/04:30am 9.5 8.5 8.9 96 0.3 NE 4 7 2 4 1008.3 1008.1 0.4
24/04:00am 10.3 9.2 8.4 88 0.9 NE 4 6 2 3 1008.1 1007.9 0.4
24/03:30am 10.6 9.1 8.5 87 1.0 NE 6 9 3 5 1007.9 1007.7 0.4
24/03:00am 10.8 9.3 8.6 86 1.1 NE 6 9 3 5 1008.0 1007.8 0.4
24/02:30am 12.1 9.1 7.6 74 2.2 NNE 13 17 7 9 1008.1 1007.9 0.4
24/02:00am 12.5 10.5 7.0 69 2.7 NNE 7 9 4 5 1008.0 1007.8 0.4
24/01:30am 12.0 10.9 7.1 72 2.4 NW 2 6 1 3 1008.1 1007.9 0.4
24/01:00am 13.0 12.2 6.4 64 3.2 CALM 0 0 0 0 1008.0 1007.8 0.4
24/12:30am 13.5 11.3 6.1 61 3.5 W 7 9 4 5 1007.9 1007.7 0.4
24/12:00am 14.0 11.8 6.1 59 3.8 W 7 13 4 7 1007.7 1007.5 0.4
 
Date/Time
EDT
Temp
°C
App
Temp
°C
Dew
Point
°C
Rel
Hum
%
Delta-T
°C
Wind Press
QNH
hPa
Press
MSL
hPa
Rain since
9am
mm
Dir  Spd
km/h
Gust
km/h
Spd
kts
Gust
kts
23/11:30pm 14.5 11.2 6.3 58 4.0 W 13 15 7 8 1007.2 1007.0 0.4
23/11:00pm 15.0 12.9 6.0 55 4.3 W 6 13 3 7 1007.0 1006.8 0.4
23/10:30pm 15.6 12.5 5.5 51 4.8 WSW 11 17 6 9 1006.5 1006.3 0.4
23/10:00pm 16.0 12.6 5.9 51 4.9 W 13 19 7 10 1006.0 1005.8 0.4
23/09:30pm 16.5 12.7 5.8 49 5.2 WSW 15 26 8 14 1005.5 1005.3 0.4
23/09:00pm 17.3 13.2 6.2 48 5.5 W 17 30 9 16 1004.7 1004.5 0.4
23/08:30pm 18.3 13.0 6.8 47 5.8 WSW 24 39 13 21 1004.1 1003.9 0.4
23/08:00pm 19.5 14.2 5.2 39 7.0 W 22 35 12 19 1003.3 1003.0 0.4
23/07:30pm 19.8 14.3 5.8 40 6.9 W 24 46 13 25 1002.6 1002.3 0.4
23/07:00pm 20.7 15.7 6.3 39 7.3 W 22 33 12 18 1001.8 1001.5 0.4
23/06:38pm 20.6 14.6 6.9 41 7.0 W 28 46 15 25 1001.2 1000.9 0.4
23/06:30pm 20.6 14.6 6.9 41 7.0 W 28 41 15 22 1000.9 1000.6 0.4
23/06:00pm 20.9 16.5 7.5 42 7.0 WNW 20 35 11 19 1000.5 1000.2 0.4
23/05:30pm 21.2 16.0 7.4 41 7.1 WNW 24 39 13 21 1000.2 999.9 0.4
23/05:00pm 22.1 19.1 10.6 48 6.4 WNW 17 32 9 17 999.7 999.4 0.4
23/04:30pm 21.2 16.7 10.1 49 6.0 NW 24 39 13 21 999.7 999.4 0.4
23/04:00pm 21.8 18.2 10.6 49 6.2 NW 20 39 11 21 999.3 999.0 0.4
23/03:30pm 20.3 15.8 10.1 52 5.5 NW 24 39 13 21 999.3 999.0 0.4
23/03:00pm 19.4 15.9 10.1 55 5.0 NW 19 32 10 17 999.1 998.8 0.4
23/02:30pm 19.1 16.8 14.1 73 2.9 NW 19 32 10 17 999.0 998.7 0.4
23/02:01pm 17.2 12.0 12.9 76 2.4 NW 32 52 17 28 998.9 998.6 0.4
23/02:00pm 17.3 12.0 12.6 74 2.6 NW 32 48 17 26 998.9 998.6 0.4
23/01:46pm 19.3 14.6 12.1 63 4.0 NNW 28 46 15 25 998.4 998.1 0.4
23/01:30pm 19.5 16.5 11.8 61 4.3 NW 19 30 10 16 998.1 997.8 0.4
23/01:10pm 19.4 14.2 10.4 56 4.9 NNW 28 48 15 26 998.1 997.8 0.4
23/01:00pm 19.5 15.3 11.0 58 4.7 NNW 24 43 13 23 998.0 997.7 0.4
23/12:30pm 19.1 14.7 11.7 62 4.1 NNW 26 43 14 23 998.0 997.7 0.4
23/12:00pm 19.0 16.0 13.6 71 3.1 N 22 39 12 21 997.7 997.4 0.4
23/11:34am 18.5 13.7 11.8 65 3.7 N 28 50 15 27 997.7 997.4 0.4
23/11:30am 18.6 14.5 12.6 68 3.4 N 26 43 14 23 997.7 997.4 0.4
23/11:22am 18.0 13.5 12.5 70 3.1 N 28 46 15 25 997.6 997.3 0.4
23/11:00am 17.3 15.9 14.4 83 1.7 NNE 15 26 8 14 997.6 997.3 0.4
23/10:30am 15.9 14.8 14.4 91 0.9 N 13 24 7 13 997.8 997.5 0.4
23/10:00am 15.1 14.6 14.9 99 0.1 NW 11 19 6 10 998.0 997.7 0.2
23/09:30am 14.8 15.1 14.6 99 0.1 WNW 6 13 3 7 997.7 997.4 0.0
23/09:00am 14.8 14.1 14.3 97 0.3 NNW 11 17 6 9 997.2 996.9 19.6
23/08:30am 13.9 14.8 13.9 100 0.0 ENE 2 7 1 4 997.3 997.0 19.4
23/08:00am 13.7 14.9 13.7 100 0.0 CALM 0 0 0 0 997.1 996.8 18.6
23/07:30am 13.5 14.2 13.5 100 0.0 ENE 2 6 1 3 996.3 996.1 18.4
23/07:00am 13.4 14.1 13.4 100 0.0 ENE 2 7 1 4 996.6 996.3 18.2
23/06:30am 13.2 13.1 13.2 100 0.0 ENE 6 13 3 7 996.1 995.9 18.0
23/06:00am 13.1 12.4 13.1 100 0.0 E 9 15 5 8 996.4 996.2 17.2
23/05:30am 12.8 11.6 12.8 100 0.0 E 11 17 6 9 997.0 996.7 16.6
23/05:00am 12.8 13.7 12.8 100 0.0 CALM 0 0 0 0 997.7 997.4 16.2
23/04:30am 12.9 12.7 12.9 100 0.0 WSW 6 11 3 6 998.2 997.9 14.4
23/04:00am 13.0 11.9 13.0 100 0.0 W 11 17 6 9 997.7 997.4 13.4
23/03:30am 13.2 11.4 13.2 100 0.0 WSW 15 22 8 12 998.0 997.7 13.0
23/03:00am 13.9 13.1 13.9 100 0.0 SW 11 19 6 10 997.5 997.2 12.8
23/02:30am 14.1 12.6 14.1 100 0.0 SW 15 24 8 13 998.0 997.7 12.2
23/02:00am 14.7 14.5 14.7 100 0.0 SW 9 17 5 9 998.9 998.6 12.0
23/01:30am 15.4 15.1 15.4 100 0.0 SW 11 17 6 9 998.8 998.5 10.4
23/01:00am 15.5 15.2 15.5 100 0.0 SW 11 20 6 11 999.7 999.4 9.0
23/12:30am 15.6 16.1 15.6 100 0.0 SSW 7 11 4 6 999.7 999.4 5.8
23/12:00am 15.9 16.5 15.9 100 0.0 SSE 7 13 4 7 999.7 999.4 4.0

Latest Capital City Observations: Canberra | Sydney | Melbourne | Brisbane | Adelaide | Perth | Hobart | Darwin

Other formats

Comma delimited format used in spreadsheet applications
http://www.bom.gov.au/fwo/IDV60901/IDV60901.95874.axf

JavaScript Object Notation format (JSON) in row-major order
http://www.bom.gov.au/fwo/IDV60901/IDV60901.95874.json

Data quality

Most of these data are generated automatically and are frequently updated. Quality checks on data are not normally performed. It is possible for incorrect values to appear. Refer to information at About Latest Weather Observations and please check the disclaimer before using these data.